createdAt,value
2018-09-10T00:00:16.865Z,85.90
2018-09-10T00:00:47.899Z,85.90
2018-09-10T00:01:18.934Z,85.80
2018-09-10T00:01:49.975Z,85.80
2018-09-10T00:02:21.027Z,85.70
2018-09-10T00:02:52.070Z,85.80
2018-09-10T00:03:23.119Z,85.80
2018-09-10T00:03:54.164Z,85.80
2018-09-10T00:04:25.217Z,85.90
2018-09-10T00:04:56.258Z,85.80
2018-09-10T00:05:27.303Z,85.80
2018-09-10T00:05:58.361Z,85.70
2018-09-10T00:06:29.406Z,85.70
2018-09-10T00:07:00.447Z,85.70
2018-09-10T00:07:31.504Z,85.70
2018-09-10T00:08:02.548Z,85.70
2018-09-10T00:08:33.586Z,85.70
2018-09-10T00:09:04.638Z,85.60
2018-09-10T00:09:35.674Z,85.70
2018-09-10T00:10:06.758Z,85.50
2018-09-10T00:10:37.859Z,85.50
2018-09-10T00:11:08.853Z,85.60
2018-09-10T00:11:39.895Z,85.70
2018-09-10T00:12:10.971Z,85.50
2018-09-10T00:12:42.011Z,85.50
2018-09-10T00:13:13.059Z,85.50
2018-09-10T00:13:44.119Z,85.70
2018-09-10T00:14:15.176Z,85.50
2018-09-10T00:14:46.208Z,85.50
2018-09-10T00:15:17.252Z,85.50
2018-09-10T00:15:48.291Z,85.50
2018-09-10T00:16:19.334Z,85.70
2018-09-10T00:16:50.381Z,85.50
2018-09-10T00:17:21.431Z,85.50
2018-09-10T00:17:52.476Z,85.50
2018-09-10T00:18:23.532Z,85.50
2018-09-10T00:18:54.575Z,85.50
2018-09-10T00:19:25.627Z,85.50
2018-09-10T00:19:56.668Z,85.40
2018-09-10T00:20:27.719Z,85.50
2018-09-10T00:20:58.763Z,85.50
2018-09-10T00:21:29.812Z,85.70
2018-09-10T00:22:00.864Z,86.00
2018-09-10T00:22:31.914Z,86.20
2018-09-10T00:23:02.964Z,86.40
2018-09-10T00:23:34.002Z,86.50
2018-09-10T00:24:05.057Z,86.70
2018-09-10T00:24:36.104Z,86.70
2018-09-10T00:25:07.189Z,86.60
2018-09-10T00:25:38.230Z,86.50
2018-09-10T00:26:09.279Z,87.20
2018-09-10T00:26:40.323Z,86.40
2018-09-10T00:27:11.375Z,86.40
2018-09-10T00:27:42.426Z,86.40
2018-09-10T00:28:13.476Z,87.10
2018-09-10T00:28:44.523Z,86.30
2018-09-10T00:29:15.567Z,86.20
2018-09-10T00:29:46.616Z,86.20
2018-09-10T00:30:17.662Z,86.20
2018-09-10T00:30:48.714Z,86.20
2018-09-10T00:31:19.770Z,86.20
2018-09-10T00:31:50.829Z,86.20
2018-09-10T00:32:21.882Z,86.20
2018-09-10T00:32:52.926Z,86.20
2018-09-10T00:33:23.966Z,86.10
2018-09-10T00:33:55.079Z,86.00
2018-09-10T00:34:26.110Z,86.00
2018-09-10T00:34:57.156Z,86.50
2018-09-10T00:35:28.198Z,85.80
2018-09-10T00:35:59.293Z,85.70
2018-09-10T00:36:30.351Z,85.70
2018-09-10T00:37:01.403Z,85.70
2018-09-10T00:37:32.471Z,85.50
2018-09-10T00:38:03.533Z,85.50
2018-09-10T00:38:34.567Z,85.40
2018-09-10T00:39:05.606Z,85.50
2018-09-10T00:39:36.665Z,85.40
2018-09-10T00:40:07.703Z,85.40
2018-09-10T00:40:38.747Z,85.40
2018-09-10T00:41:09.804Z,85.50
2018-09-10T00:41:40.847Z,85.40
2018-09-10T00:42:11.890Z,85.40
2018-09-10T00:42:42.953Z,85.40
2018-09-10T00:43:13.999Z,85.40
2018-09-10T00:43:45.053Z,85.40
2018-09-10T00:44:16.087Z,85.30
2018-09-10T00:44:47.139Z,85.20
2018-09-10T00:45:18.189Z,86.00
2018-09-10T00:45:49.231Z,86.00
2018-09-10T00:46:20.280Z,85.40
2018-09-10T00:46:51.329Z,85.30
2018-09-10T00:47:22.389Z,85.30
2018-09-10T00:47:53.427Z,85.20
2018-09-10T00:48:24.476Z,84.70
2018-09-10T00:48:55.515Z,85.20
2018-09-10T00:49:26.561Z,86.00
2018-09-10T00:49:57.608Z,85.20
2018-09-10T00:50:28.653Z,85.20
2018-09-10T00:50:59.701Z,85.20
2018-09-10T00:51:30.740Z,86.00
2018-09-10T00:52:01.778Z,85.30
2018-09-10T00:52:32.831Z,85.20
2018-09-10T00:53:03.875Z,85.20
2018-09-10T00:53:34.971Z,85.20
2018-09-10T00:54:05.971Z,85.20
2018-09-10T00:54:37.009Z,84.80
2018-09-10T00:55:08.048Z,85.20
2018-09-10T00:55:39.090Z,85.10
2018-09-10T00:56:10.143Z,85.10
2018-09-10T00:56:41.196Z,85.20
2018-09-10T00:57:12.247Z,85.30
2018-09-10T00:57:43.299Z,85.50
2018-09-10T00:58:14.351Z,85.70
2018-09-10T00:58:45.392Z,85.80
2018-09-10T00:59:16.436Z,86.00
2018-09-10T00:59:47.478Z,86.20
2018-09-10T01:00:18.859Z,86.30
2018-09-10T01:00:49.906Z,86.20
2018-09-10T01:01:20.947Z,86.10
2018-09-10T01:01:52.251Z,86.20
2018-09-10T01:02:23.299Z,86.00
2018-09-10T01:02:54.350Z,86.00
2018-09-10T01:03:25.403Z,86.10
2018-09-10T01:03:56.458Z,86.10
2018-09-10T01:04:27.494Z,86.10
2018-09-10T01:04:58.543Z,86.00
2018-09-10T01:05:29.584Z,86.00
2018-09-10T01:06:00.632Z,86.00
2018-09-10T01:06:31.687Z,86.00
2018-09-10T01:07:02.735Z,85.90
2018-09-10T01:07:33.797Z,85.90
2018-09-10T01:08:04.835Z,85.80
2018-09-10T01:08:35.892Z,86.00
2018-09-10T01:09:07.015Z,86.00
2018-09-10T01:09:38.068Z,86.00
2018-09-10T01:10:09.111Z,86.00
2018-09-10T01:10:40.150Z,85.90
2018-09-10T01:11:11.195Z,85.80
2018-09-10T01:11:42.240Z,85.80
2018-09-10T01:12:13.282Z,85.70
2018-09-10T01:12:44.339Z,85.60
2018-09-10T01:13:15.391Z,85.50
2018-09-10T01:13:46.436Z,85.40
2018-09-10T01:14:17.479Z,85.20
2018-09-10T01:14:48.535Z,85.20
2018-09-10T01:15:19.575Z,85.10
2018-09-10T01:15:50.617Z,85.10
2018-09-10T01:16:21.658Z,85.20
2018-09-10T01:16:52.695Z,85.10
2018-09-10T01:17:23.734Z,85.10
2018-09-10T01:17:54.787Z,85.20
2018-09-10T01:18:25.841Z,85.20
2018-09-10T01:18:56.875Z,85.10
2018-09-10T01:19:27.929Z,85.10
2018-09-10T01:19:58.976Z,85.10
2018-09-10T01:20:30.015Z,85.10
2018-09-10T01:21:01.059Z,85.10
2018-09-10T01:21:32.106Z,85.10
2018-09-10T01:22:03.146Z,85.10
2018-09-10T01:22:34.196Z,85.10
2018-09-10T01:23:05.251Z,85.00
2018-09-10T01:23:36.311Z,85.00
2018-09-10T01:24:07.399Z,85.00
2018-09-10T01:24:38.431Z,85.00
2018-09-10T01:25:09.483Z,85.10
2018-09-10T01:25:40.528Z,85.00
2018-09-10T01:26:11.577Z,85.00
2018-09-10T01:26:42.620Z,85.00
2018-09-10T01:27:13.663Z,85.10
2018-09-10T01:27:44.719Z,85.10
2018-09-10T01:28:16.144Z,85.10
2018-09-10T01:28:47.170Z,85.10
2018-09-10T01:29:18.218Z,85.00
2018-09-10T01:29:49.258Z,85.00
2018-09-10T01:30:20.311Z,85.00
2018-09-10T01:30:51.376Z,85.70
2018-09-10T01:31:22.411Z,85.00
2018-09-10T01:31:53.589Z,85.10
2018-09-10T01:32:24.626Z,85.10
2018-09-10T01:32:55.691Z,85.10
2018-09-10T01:33:26.727Z,85.10
2018-09-10T01:33:57.776Z,85.20
2018-09-10T01:34:28.827Z,85.40
2018-09-10T01:34:59.874Z,85.70
2018-09-10T01:35:30.919Z,85.90
2018-09-10T01:36:01.968Z,86.00
2018-09-10T01:36:33.011Z,86.20
2018-09-10T01:37:04.055Z,86.20
2018-09-10T01:37:35.100Z,86.20
2018-09-10T01:38:06.154Z,86.20
2018-09-10T01:38:37.203Z,86.20
2018-09-10T01:39:08.252Z,86.90
2018-09-10T01:39:39.296Z,86.20
2018-09-10T01:40:10.339Z,86.10
2018-09-10T01:40:41.387Z,86.10
2018-09-10T01:41:12.431Z,86.10
2018-09-10T01:41:43.483Z,86.00
2018-09-10T01:42:14.523Z,86.00
2018-09-10T01:42:45.583Z,86.00
2018-09-10T01:43:16.643Z,86.00
2018-09-10T01:43:47.692Z,86.00
2018-09-10T01:44:18.738Z,86.00
2018-09-10T01:44:49.784Z,86.00
2018-09-10T01:45:20.831Z,86.00
2018-09-10T01:45:51.884Z,86.70
2018-09-10T01:46:22.927Z,86.00
2018-09-10T01:46:53.976Z,86.00
2018-09-10T01:47:25.023Z,85.80
2018-09-10T01:47:56.074Z,85.80
2018-09-10T01:48:27.120Z,85.60
2018-09-10T01:48:58.167Z,85.50
2018-09-10T01:49:29.219Z,86.20
2018-09-10T01:50:00.254Z,85.30
2018-09-10T01:50:31.300Z,85.20
2018-09-10T01:51:02.401Z,85.10
2018-09-10T01:51:33.439Z,85.10
2018-09-10T01:52:04.491Z,85.10
2018-09-10T01:52:35.526Z,85.10
2018-09-10T01:53:06.581Z,85.80
2018-09-10T01:53:37.620Z,85.10
2018-09-10T01:54:08.671Z,85.10
2018-09-10T01:54:39.718Z,85.10
2018-09-10T01:55:10.771Z,85.10
2018-09-10T01:55:41.973Z,85.10
2018-09-10T01:56:13.015Z,85.00
2018-09-10T01:56:44.063Z,85.00
2018-09-10T01:57:15.119Z,85.00
2018-09-10T01:57:46.162Z,85.10
2018-09-10T01:58:17.207Z,85.00
2018-09-10T01:58:48.845Z,85.00
2018-09-10T01:59:19.891Z,85.00
2018-09-10T01:59:51.004Z,85.00
2018-09-10T02:00:22.052Z,85.00
2018-09-10T02:00:53.099Z,85.00
2018-09-10T02:01:24.147Z,85.00
2018-09-10T02:01:55.193Z,85.00
2018-09-10T02:02:26.245Z,85.00
2018-09-10T02:02:57.303Z,85.00
2018-09-10T02:03:28.346Z,85.00
2018-09-10T02:03:59.387Z,85.00
2018-09-10T02:04:30.439Z,85.00
2018-09-10T02:05:01.498Z,85.10
2018-09-10T02:05:32.535Z,85.10
2018-09-10T02:06:03.584Z,85.00
2018-09-10T02:06:34.622Z,85.10
2018-09-10T02:07:05.671Z,85.90
2018-09-10T02:07:36.721Z,85.10
2018-09-10T02:08:07.767Z,85.00
2018-09-10T02:08:38.807Z,85.00
2018-09-10T02:09:09.865Z,85.00
2018-09-10T02:09:40.903Z,85.00
2018-09-10T02:10:11.947Z,85.10
2018-09-10T02:10:42.995Z,85.30
2018-09-10T02:11:14.046Z,85.60
2018-09-10T02:11:45.087Z,85.80
2018-09-10T02:12:16.137Z,85.90
2018-09-10T02:12:47.178Z,86.90
2018-09-10T02:13:18.231Z,86.10
2018-09-10T02:13:49.274Z,86.10
2018-09-10T02:14:20.350Z,86.00
2018-09-10T02:14:51.403Z,86.00
2018-09-10T02:15:22.451Z,86.00
2018-09-10T02:15:53.491Z,86.00
2018-09-10T02:16:24.543Z,86.00
2018-09-10T02:16:55.600Z,86.00
2018-09-10T02:17:26.627Z,86.00
2018-09-10T02:17:57.684Z,86.00
2018-09-10T02:18:28.731Z,86.00
2018-09-10T02:18:59.779Z,86.00
2018-09-10T02:19:30.827Z,86.00
2018-09-10T02:20:01.874Z,86.00
2018-09-10T02:20:32.925Z,86.10
2018-09-10T02:21:03.975Z,86.10
2018-09-10T02:21:35.018Z,86.10
2018-09-10T02:22:06.075Z,86.10
2018-09-10T02:22:37.115Z,86.10
2018-09-10T02:23:08.167Z,86.00
2018-09-10T02:23:39.263Z,86.00
2018-09-10T02:24:10.274Z,85.80
2018-09-10T02:24:41.331Z,85.70
2018-09-10T02:25:12.377Z,85.70
2018-09-10T02:25:43.423Z,85.50
2018-09-10T02:26:14.466Z,85.40
2018-09-10T02:26:45.510Z,85.30
2018-09-10T02:27:16.597Z,85.20
2018-09-10T02:27:47.657Z,85.20
2018-09-10T02:28:18.655Z,85.10
2018-09-10T02:28:49.703Z,85.10
2018-09-10T02:29:20.774Z,85.10
2018-09-10T02:29:51.799Z,85.10
2018-09-10T02:30:22.856Z,85.20
2018-09-10T02:30:53.903Z,85.10
2018-09-10T02:31:24.943Z,85.00
2018-09-10T02:31:55.991Z,85.00
2018-09-10T02:32:27.035Z,85.00
2018-09-10T02:32:58.085Z,85.00
2018-09-10T02:33:29.144Z,85.00
2018-09-10T02:34:00.183Z,85.00
2018-09-10T02:34:31.607Z,85.00
2018-09-10T02:35:02.683Z,85.00
2018-09-10T02:35:33.727Z,85.00
2018-09-10T02:36:04.771Z,85.00
2018-09-10T02:36:35.827Z,85.00
2018-09-10T02:37:06.995Z,85.00
2018-09-10T02:37:38.020Z,85.00
2018-09-10T02:38:09.068Z,85.00
2018-09-10T02:38:40.168Z,85.00
2018-09-10T02:39:11.160Z,84.90
2018-09-10T02:39:42.207Z,85.00
2018-09-10T02:40:13.248Z,85.00
2018-09-10T02:40:44.295Z,85.00
2018-09-10T02:41:15.341Z,85.10
2018-09-10T02:41:46.387Z,85.00
2018-09-10T02:42:17.426Z,85.00
2018-09-10T02:42:48.471Z,84.90
2018-09-10T02:43:19.524Z,84.90
2018-09-10T02:43:50.574Z,85.00
2018-09-10T02:44:21.615Z,85.00
2018-09-10T02:44:52.662Z,84.90
2018-09-10T02:45:23.702Z,84.90
2018-09-10T02:45:54.747Z,85.00
2018-09-10T02:46:25.792Z,85.00
2018-09-10T02:46:56.835Z,85.80
2018-09-10T02:47:27.891Z,85.10
2018-09-10T02:47:58.926Z,85.20
2018-09-10T02:48:29.987Z,85.40
2018-09-10T02:49:01.024Z,85.60
2018-09-10T02:49:32.073Z,85.70
2018-09-10T02:50:03.119Z,85.80
2018-09-10T02:50:34.162Z,86.00
2018-09-10T02:51:05.211Z,86.00
2018-09-10T02:51:36.260Z,86.00
2018-09-10T02:52:07.318Z,86.00
2018-09-10T02:52:38.967Z,86.00
2018-09-10T02:53:10.011Z,85.90
2018-09-10T02:53:41.063Z,86.00
2018-09-10T02:54:12.107Z,86.00
2018-09-10T02:54:43.152Z,86.00
2018-09-10T02:55:14.249Z,86.60
2018-09-10T02:55:45.233Z,86.00
2018-09-10T02:56:16.271Z,86.00
2018-09-10T02:56:47.315Z,86.00
2018-09-10T02:57:18.355Z,85.90
2018-09-10T02:57:49.399Z,86.00
2018-09-10T02:58:20.450Z,86.00
2018-09-10T02:58:51.496Z,86.00
2018-09-10T02:59:22.642Z,86.00
2018-09-10T02:59:53.690Z,85.80
2018-09-10T03:00:24.747Z,85.80
2018-09-10T03:00:55.792Z,85.70
2018-09-10T03:01:26.831Z,86.40
2018-09-10T03:01:57.884Z,85.50
2018-09-10T03:02:28.935Z,85.30
2018-09-10T03:02:59.983Z,85.20
2018-09-10T03:03:31.044Z,85.20
2018-09-10T03:04:02.099Z,85.10
2018-09-10T03:04:33.147Z,85.10
2018-09-10T03:05:04.200Z,85.10
2018-09-10T03:05:35.226Z,85.00
2018-09-10T03:06:06.278Z,85.00
2018-09-10T03:06:37.320Z,85.00
2018-09-10T03:07:08.367Z,85.00
2018-09-10T03:07:39.420Z,85.00
2018-09-10T03:08:10.462Z,85.00
2018-09-10T03:08:41.515Z,85.00
2018-09-10T03:09:12.562Z,85.00
2018-09-10T03:09:43.610Z,85.00
2018-09-10T03:10:14.655Z,84.90
2018-09-10T03:10:45.700Z,84.80
2018-09-10T03:11:16.739Z,84.90
2018-09-10T03:11:47.789Z,84.80
2018-09-10T03:12:18.832Z,84.90
2018-09-10T03:12:49.880Z,84.80
2018-09-10T03:13:20.920Z,84.90
2018-09-10T03:13:52.031Z,84.80
2018-09-10T03:14:23.074Z,84.90
2018-09-10T03:14:54.132Z,84.80
2018-09-10T03:15:25.167Z,84.80
2018-09-10T03:15:56.221Z,84.80
2018-09-10T03:16:27.271Z,84.80
2018-09-10T03:16:58.301Z,84.80
2018-09-10T03:17:29.343Z,84.80
2018-09-10T03:18:00.481Z,84.70
2018-09-10T03:18:31.432Z,84.80
2018-09-10T03:19:02.492Z,84.80
2018-09-10T03:19:33.539Z,84.80
2018-09-10T03:20:04.583Z,84.80
2018-09-10T03:20:35.634Z,84.80
2018-09-10T03:21:06.680Z,84.80
2018-09-10T03:21:37.720Z,84.80
2018-09-10T03:22:08.779Z,85.00
2018-09-10T03:22:39.832Z,84.90
2018-09-10T03:23:10.879Z,85.00
2018-09-10T03:23:41.938Z,85.00
2018-09-10T03:24:13.003Z,85.10
2018-09-10T03:24:44.024Z,85.40
2018-09-10T03:25:15.064Z,85.60
2018-09-10T03:25:46.107Z,85.80
2018-09-10T03:26:17.158Z,85.90
2018-09-10T03:26:48.199Z,85.80
2018-09-10T03:27:19.243Z,85.90
2018-09-10T03:27:50.288Z,85.80
2018-09-10T03:28:21.331Z,85.80
2018-09-10T03:28:52.383Z,85.80
2018-09-10T03:29:23.432Z,85.80
2018-09-10T03:29:54.474Z,86.20
2018-09-10T03:30:25.844Z,85.80
2018-09-10T03:30:56.899Z,85.70
2018-09-10T03:31:27.944Z,85.70
2018-09-10T03:31:58.987Z,85.70
2018-09-10T03:32:30.043Z,85.80
2018-09-10T03:33:01.091Z,85.80
2018-09-10T03:33:32.205Z,85.80
2018-09-10T03:34:03.195Z,85.80
2018-09-10T03:34:34.239Z,85.80
2018-09-10T03:35:05.291Z,85.80
2018-09-10T03:35:36.336Z,85.70
2018-09-10T03:36:07.432Z,85.70
2018-09-10T03:36:38.475Z,85.70
2018-09-10T03:37:09.519Z,85.50
2018-09-10T03:37:40.567Z,85.60
2018-09-10T03:38:11.606Z,85.50
2018-09-10T03:38:42.652Z,85.20
2018-09-10T03:39:13.710Z,85.20
2018-09-10T03:39:44.756Z,85.10
2018-09-10T03:40:15.804Z,85.00
2018-09-10T03:40:46.839Z,85.00
2018-09-10T03:41:17.895Z,84.80
2018-09-10T03:41:48.943Z,85.70
2018-09-10T03:42:19.990Z,84.80
2018-09-10T03:42:51.036Z,84.80
2018-09-10T03:43:22.083Z,84.80
2018-09-10T03:43:53.139Z,84.80
2018-09-10T03:44:24.179Z,84.80
2018-09-10T03:44:55.227Z,84.80
2018-09-10T03:45:26.272Z,84.80
2018-09-10T03:45:57.321Z,84.80
2018-09-10T03:46:28.361Z,84.80
2018-09-10T03:46:59.408Z,84.80
2018-09-10T03:47:30.524Z,84.70
2018-09-10T03:48:01.491Z,84.80
2018-09-10T03:48:32.535Z,84.80
2018-09-10T03:49:03.599Z,84.80
2018-09-10T03:49:34.640Z,84.70
2018-09-10T03:50:05.683Z,84.80
2018-09-10T03:50:36.844Z,84.70
2018-09-10T03:51:07.885Z,84.70
2018-09-10T03:51:38.925Z,84.70
2018-09-10T03:52:09.968Z,84.70
2018-09-10T03:52:41.012Z,84.70
2018-09-10T03:53:12.060Z,84.70
2018-09-10T03:53:43.107Z,84.70
2018-09-10T03:54:14.290Z,84.70
2018-09-10T03:54:45.314Z,84.70
2018-09-10T03:55:16.396Z,84.70
2018-09-10T03:55:47.435Z,84.70
2018-09-10T03:56:18.483Z,84.60
2018-09-10T03:56:49.538Z,84.70
2018-09-10T03:57:20.576Z,84.10
2018-09-10T03:57:51.637Z,84.80
2018-09-10T03:58:22.697Z,84.80
2018-09-10T03:58:53.731Z,84.80
2018-09-10T03:59:24.771Z,84.80
2018-09-10T03:59:55.814Z,84.70
2018-09-10T04:00:26.859Z,84.70
2018-09-10T04:00:57.911Z,84.80
2018-09-10T04:01:28.959Z,85.00
2018-09-10T04:01:59.999Z,85.10
2018-09-10T04:02:31.090Z,86.10
2018-09-10T04:03:02.089Z,85.40
2018-09-10T04:03:33.140Z,85.50
2018-09-10T04:04:04.179Z,85.70
2018-09-10T04:04:35.228Z,85.70
2018-09-10T04:05:06.278Z,85.70
2018-09-10T04:05:37.324Z,85.70
2018-09-10T04:06:08.367Z,85.70
2018-09-10T04:06:39.420Z,85.60
2018-09-10T04:07:10.463Z,85.60
2018-09-10T04:07:41.538Z,85.60
2018-09-10T04:08:12.582Z,85.60
2018-09-10T04:08:43.631Z,85.50
2018-09-10T04:09:14.691Z,85.50
2018-09-10T04:09:45.790Z,85.60
2018-09-10T04:10:16.843Z,85.70
2018-09-10T04:10:47.892Z,86.40
2018-09-10T04:11:18.947Z,85.60
2018-09-10T04:11:49.991Z,85.50
2018-09-10T04:12:21.036Z,85.50
2018-09-10T04:12:52.074Z,85.50
2018-09-10T04:13:23.172Z,85.40
2018-09-10T04:13:54.215Z,84.80
2018-09-10T04:14:25.302Z,85.20
2018-09-10T04:14:56.322Z,85.20
2018-09-10T04:15:27.387Z,85.10
2018-09-10T04:15:58.443Z,85.70
2018-09-10T04:16:29.483Z,84.90
2018-09-10T04:17:00.559Z,84.80
2018-09-10T04:17:31.580Z,84.80
2018-09-10T04:18:02.626Z,84.70
2018-09-10T04:18:33.675Z,84.70
2018-09-10T04:19:04.725Z,84.70
2018-09-10T04:19:35.779Z,84.70
2018-09-10T04:20:06.856Z,84.70
2018-09-10T04:20:37.894Z,84.70
2018-09-10T04:21:08.938Z,84.70
2018-09-10T04:21:40.033Z,84.70
2018-09-10T04:22:11.079Z,84.70
2018-09-10T04:22:42.185Z,84.70
2018-09-10T04:23:13.227Z,84.60
2018-09-10T04:23:44.499Z,84.70
2018-09-10T04:24:15.693Z,84.50
2018-09-10T04:24:46.775Z,84.60
2018-09-10T04:25:17.951Z,85.30
2018-09-10T04:25:49.022Z,84.50
2018-09-10T04:26:20.191Z,84.50
2018-09-10T04:26:51.218Z,84.50
2018-09-10T04:27:22.274Z,84.50
2018-09-10T04:27:53.312Z,84.60
2018-09-10T04:28:24.359Z,84.60
2018-09-10T04:28:55.408Z,84.70
2018-09-10T04:29:26.483Z,84.60
2018-09-10T04:29:57.527Z,84.60
2018-09-10T04:30:28.571Z,84.50
2018-09-10T04:30:59.625Z,84.70
2018-09-10T04:31:30.670Z,84.70
2018-09-10T04:32:01.712Z,84.70
2018-09-10T04:32:32.750Z,84.50
2018-09-10T04:33:03.799Z,84.60
2018-09-10T04:33:34.847Z,84.50
2018-09-10T04:34:05.894Z,84.70
2018-09-10T04:34:36.951Z,84.60
2018-09-10T04:35:07.991Z,84.60
2018-09-10T04:35:39.035Z,84.50
2018-09-10T04:36:10.162Z,84.50
2018-09-10T04:36:41.132Z,84.60
2018-09-10T04:37:12.184Z,84.70
2018-09-10T04:37:43.223Z,84.80
2018-09-10T04:38:14.279Z,84.80
2018-09-10T04:38:45.316Z,84.90
2018-09-10T04:39:16.355Z,85.00
2018-09-10T04:39:47.411Z,85.20
2018-09-10T04:40:18.455Z,85.30
2018-09-10T04:40:49.501Z,85.40
2018-09-10T04:41:20.660Z,85.40
2018-09-10T04:41:51.684Z,85.50
2018-09-10T04:42:22.839Z,85.50
2018-09-10T04:42:53.771Z,85.60
2018-09-10T04:43:25.318Z,85.50
2018-09-10T04:43:56.367Z,85.50
2018-09-10T04:44:27.407Z,85.40
2018-09-10T04:44:58.467Z,85.50
2018-09-10T04:45:29.511Z,85.50
2018-09-10T04:46:00.559Z,85.50
2018-09-10T04:46:31.608Z,85.40
2018-09-10T04:47:02.653Z,85.50
2018-09-10T04:47:33.710Z,85.50
2018-09-10T04:48:04.751Z,85.50
2018-09-10T04:48:35.795Z,85.50
2018-09-10T04:49:06.870Z,85.50
2018-09-10T04:49:37.950Z,85.40
2018-09-10T04:50:08.965Z,85.20
2018-09-10T04:50:40.002Z,85.40
2018-09-10T04:51:11.056Z,85.30
2018-09-10T04:51:42.103Z,85.20
2018-09-10T04:52:13.139Z,85.00
2018-09-10T04:52:44.183Z,84.90
2018-09-10T04:53:15.227Z,84.80
2018-09-10T04:53:46.275Z,84.70
2018-09-10T04:54:17.326Z,84.70
2018-09-10T04:54:48.376Z,84.50
2018-09-10T04:55:19.427Z,84.50
2018-09-10T04:55:50.467Z,84.10
2018-09-10T04:56:21.688Z,84.60
2018-09-10T04:56:52.731Z,84.40
2018-09-10T04:57:23.783Z,84.50
2018-09-10T04:57:54.825Z,84.50
2018-09-10T04:58:25.872Z,84.50
2018-09-10T04:58:56.924Z,84.40
2018-09-10T04:59:27.971Z,84.50
2018-09-10T04:59:59.031Z,84.60
2018-09-10T05:00:30.076Z,84.60
2018-09-10T05:01:01.127Z,84.70
2018-09-10T05:01:32.180Z,84.60
2018-09-10T05:02:03.227Z,84.50
2018-09-10T05:02:34.271Z,84.50
2018-09-10T05:03:05.315Z,84.50
2018-09-10T05:03:36.371Z,84.40
2018-09-10T05:04:07.503Z,84.40
2018-09-10T05:04:38.563Z,84.50
2018-09-10T05:05:09.608Z,84.50
2018-09-10T05:05:40.655Z,84.40
2018-09-10T05:06:11.704Z,84.50
2018-09-10T05:06:42.756Z,84.50
2018-09-10T05:07:13.795Z,84.50
2018-09-10T05:07:44.838Z,84.50
2018-09-10T05:08:15.895Z,85.30
2018-09-10T05:08:46.931Z,84.50
2018-09-10T05:09:18.000Z,84.50
2018-09-10T05:09:49.167Z,84.50
2018-09-10T05:10:20.169Z,84.40
2018-09-10T05:10:51.186Z,84.50
2018-09-10T05:11:22.256Z,84.50
2018-09-10T05:11:53.288Z,84.40
2018-09-10T05:12:24.331Z,84.40
2018-09-10T05:12:55.379Z,84.40
2018-09-10T05:13:26.415Z,84.50
2018-09-10T05:13:57.459Z,84.50
2018-09-10T05:14:28.531Z,84.70
2018-09-10T05:14:59.579Z,84.80
2018-09-10T05:15:30.651Z,85.00
2018-09-10T05:16:01.691Z,85.20
2018-09-10T05:16:32.744Z,85.20
2018-09-10T05:17:03.794Z,85.30
2018-09-10T05:17:34.832Z,85.40
2018-09-10T05:18:05.875Z,85.80
2018-09-10T05:18:36.967Z,85.50
2018-09-10T05:19:08.011Z,85.50
2018-09-10T05:19:39.055Z,85.40
2018-09-10T05:20:10.103Z,85.40
2018-09-10T05:20:41.151Z,85.40
2018-09-10T05:21:12.190Z,85.40
2018-09-10T05:21:43.231Z,85.30
2018-09-10T05:22:14.285Z,85.20
2018-09-10T05:22:45.323Z,85.30
2018-09-10T05:23:16.370Z,85.40
2018-09-10T05:23:47.415Z,85.20
2018-09-10T05:24:18.463Z,85.20
2018-09-10T05:24:49.503Z,85.20
2018-09-10T05:25:20.555Z,85.20
2018-09-10T05:25:51.648Z,85.20
2018-09-10T05:26:22.695Z,85.20
2018-09-10T05:26:53.732Z,85.10
2018-09-10T05:27:24.780Z,85.10
2018-09-10T05:27:55.832Z,85.00
2018-09-10T05:28:26.872Z,84.80
2018-09-10T05:28:57.917Z,84.70
2018-09-10T05:29:28.960Z,84.70
2018-09-10T05:30:00.013Z,84.50
2018-09-10T05:30:31.060Z,84.60
2018-09-10T05:31:02.104Z,84.50
2018-09-10T05:31:33.160Z,84.50
2018-09-10T05:32:04.204Z,84.50
2018-09-10T05:32:35.251Z,84.40
2018-09-10T05:33:06.311Z,84.50
2018-09-10T05:33:37.363Z,84.50
2018-09-10T05:34:08.415Z,84.50
2018-09-10T05:34:39.455Z,84.50
2018-09-10T05:35:10.508Z,84.50
2018-09-10T05:35:41.551Z,84.40
2018-09-10T05:36:12.595Z,84.40
2018-09-10T05:36:43.702Z,84.40
2018-09-10T05:37:14.750Z,84.40
2018-09-10T05:37:45.796Z,84.40
2018-09-10T05:38:16.843Z,84.40
2018-09-10T05:38:47.887Z,84.40
2018-09-10T05:39:18.952Z,84.60
2018-09-10T05:39:49.998Z,84.60
2018-09-10T05:40:21.056Z,84.50
2018-09-10T05:40:52.094Z,84.50
2018-09-10T05:41:23.150Z,85.40
2018-09-10T05:41:54.187Z,84.60
2018-09-10T05:42:25.235Z,84.50
2018-09-10T05:42:56.274Z,84.40
2018-09-10T05:43:27.328Z,84.40
2018-09-10T05:43:58.375Z,84.40
2018-09-10T05:44:29.419Z,84.40
2018-09-10T05:45:00.470Z,84.50
2018-09-10T05:45:31.506Z,85.20
2018-09-10T05:46:02.555Z,84.50
2018-09-10T05:46:33.599Z,84.50
2018-09-10T05:47:04.644Z,84.50
2018-09-10T05:47:35.755Z,84.50
2018-09-10T05:48:06.762Z,84.50
2018-09-10T05:48:37.791Z,84.40
2018-09-10T05:49:08.831Z,84.40
2018-09-10T05:49:39.879Z,84.40
2018-09-10T05:50:10.939Z,84.50
2018-09-10T05:50:41.985Z,84.50
2018-09-10T05:51:13.030Z,84.60
2018-09-10T05:51:44.076Z,84.60
2018-09-10T05:52:15.115Z,84.80
2018-09-10T05:52:46.167Z,85.50
2018-09-10T05:53:17.239Z,85.20
2018-09-10T05:53:48.251Z,85.30
2018-09-10T05:54:19.299Z,85.40
2018-09-10T05:54:50.347Z,85.40
2018-09-10T05:55:21.391Z,85.50
2018-09-10T05:55:52.438Z,85.50
2018-09-10T05:56:23.486Z,85.50
2018-09-10T05:56:54.561Z,85.50
2018-09-10T05:57:25.599Z,85.50
2018-09-10T05:57:56.651Z,85.60
2018-09-10T05:58:27.695Z,85.50
2018-09-10T05:58:58.739Z,85.50
2018-09-10T05:59:29.815Z,85.60
2018-09-10T06:00:00.863Z,85.50
2018-09-10T06:00:31.920Z,85.50
2018-09-10T06:01:02.966Z,85.50
2018-09-10T06:01:34.007Z,85.50
2018-09-10T06:02:05.071Z,85.50
2018-09-10T06:02:36.120Z,85.40
2018-09-10T06:03:07.227Z,85.20
2018-09-10T06:03:38.269Z,85.20
2018-09-10T06:04:09.313Z,85.10
2018-09-10T06:04:40.355Z,85.10
2018-09-10T06:05:11.403Z,85.00
2018-09-10T06:05:42.465Z,84.80
2018-09-10T06:06:13.515Z,84.80
2018-09-10T06:06:44.554Z,84.70
2018-09-10T06:07:15.624Z,84.70
2018-09-10T06:07:46.673Z,84.50
2018-09-10T06:08:17.712Z,84.50
2018-09-10T06:08:48.859Z,84.50
2018-09-10T06:09:19.798Z,84.50
2018-09-10T06:09:50.847Z,84.50
2018-09-10T06:10:21.957Z,84.60
2018-09-10T06:10:52.962Z,84.60
2018-09-10T06:11:24.011Z,84.50
2018-09-10T06:11:55.051Z,84.50
2018-09-10T06:12:26.097Z,84.50
2018-09-10T06:12:57.158Z,84.50
2018-09-10T06:13:28.211Z,84.50
2018-09-10T06:13:59.258Z,84.40
2018-09-10T06:14:30.298Z,84.40
2018-09-10T06:15:01.344Z,84.40
2018-09-10T06:15:32.395Z,84.70
2018-09-10T06:16:03.450Z,84.50
2018-09-10T06:16:34.510Z,84.50
2018-09-10T06:17:05.548Z,84.50
2018-09-10T06:17:36.586Z,84.50
2018-09-10T06:18:07.647Z,84.50
2018-09-10T06:18:38.692Z,84.50
2018-09-10T06:19:09.746Z,84.50
2018-09-10T06:19:40.784Z,84.50
2018-09-10T06:20:11.827Z,84.50
2018-09-10T06:20:42.878Z,84.50
2018-09-10T06:21:13.930Z,84.40
2018-09-10T06:21:44.970Z,84.50
2018-09-10T06:22:16.015Z,84.50
2018-09-10T06:22:47.054Z,84.50
2018-09-10T06:23:18.091Z,84.70
2018-09-10T06:23:49.148Z,84.80
2018-09-10T06:24:20.195Z,84.70
2018-09-10T06:24:51.254Z,84.60
2018-09-10T06:25:22.292Z,84.60
2018-09-10T06:25:53.335Z,84.70
2018-09-10T06:26:24.406Z,84.70
2018-09-10T06:26:55.455Z,84.70
2018-09-10T06:27:26.503Z,84.70
2018-09-10T06:27:57.555Z,84.70
2018-09-10T06:28:28.612Z,84.80
2018-09-10T06:28:59.650Z,85.10
2018-09-10T06:29:30.704Z,85.20
2018-09-10T06:30:01.747Z,85.40
2018-09-10T06:30:32.804Z,85.40
2018-09-10T06:31:03.859Z,85.60
2018-09-10T06:31:34.910Z,85.50
2018-09-10T06:32:05.960Z,85.60
2018-09-10T06:32:36.999Z,85.60
2018-09-10T06:33:08.044Z,85.70
2018-09-10T06:33:39.090Z,85.70
2018-09-10T06:34:10.162Z,85.60
2018-09-10T06:34:41.188Z,85.70
2018-09-10T06:35:12.228Z,85.70
2018-09-10T06:35:43.299Z,85.70
2018-09-10T06:36:14.339Z,85.70
2018-09-10T06:36:45.388Z,85.70
2018-09-10T06:37:16.520Z,85.70
2018-09-10T06:37:47.484Z,85.60
2018-09-10T06:38:18.550Z,85.60
2018-09-10T06:38:49.599Z,85.60
2018-09-10T06:39:20.676Z,85.70
2018-09-10T06:39:51.695Z,85.60